This is the latest recevied weather packets stored in our database for station/object K6CED. If no packets are shown the sender has not sent any weather packets the latest 10 day(s).
| Time | Temp. | Humidity | Pressure | Rain* | Wind** | Luminosity | Snow |
|---|---|---|---|---|---|---|---|
| 1787504080 | 31.67° C | 39% | 1016.1 hPa | 0 mm | - | 613 W/m² | - |
| 1787503775 | 32.22° C | 39% | 1016.4 hPa | 0 mm | - | 593 W/m² | - |
| 1787503471 | 32.22° C | 38% | 1016.3 hPa | 0 mm | - | 575 W/m² | - |
| 1787503167 | 31.11° C | 39% | 1016.5 hPa | 0 mm | - | 559 W/m² | - |
| 1787502863 | 30.56° C | 39% | 1016.2 hPa | 0 mm | - | 546 W/m² | - |
| 1787502563 | 30.56° C | 42% | 1016.2 hPa | 0 mm | - | 535 W/m² | - |
| 1787502262 | 30° C | 42% | 1016.3 hPa | 0 mm | - | 523 W/m² | - |
| 1787501958 | 30° C | 42% | 1016.3 hPa | 0 mm | - | 511 W/m² | - |
| 1787501654 | 30.56° C | 41% | 1016.1 hPa | 0 mm | - | 228 W/m² | - |
| 1787501349 | 30° C | 43% | 1016.1 hPa | 0 mm | - | 480 W/m² | - |
| 1787501046 | 28.89° C | 45% | 1016.2 hPa | 0 mm | - | 467 W/m² | - |
| 1787500741 | 28.89° C | 45% | 1016.2 hPa | 0 mm | - | 449 W/m² | - |
| 1787500436 | 28.89° C | 46% | 1016.2 hPa | 0 mm | - | 431 W/m² | - |
| 1787500131 | 27.22° C | 48% | 1016.1 hPa | 0 mm | - | 409 W/m² | - |
| 1787499825 | 27.22° C | 49% | 1016.1 hPa | 0 mm | - | 388 W/m² | - |
| 1787499520 | 26.67° C | 50% | 1016.2 hPa | 0 mm | - | 369 W/m² | - |
| 1787499216 | 26.67° C | 49% | 1016.2 hPa | 0 mm | - | 349 W/m² | - |
| 1787498912 | 26.67° C | 50% | 1016.2 hPa | 0 mm | - | 329 W/m² | - |
| 1787498610 | 26.11° C | 51% | 1016.1 hPa | 0 mm | - | 310 W/m² | - |
| 1787498306 | 26.11° C | 50% | 1016.4 hPa | 0 mm | - | 292 W/m² | - |
| 1787498001 | 25.56° C | 52% | 1016.2 hPa | 0 mm | - | 271 W/m² | - |
| 1787497697 | 25.56° C | 52% | 1016.2 hPa | 0 mm | - | 249 W/m² | - |
| 1787497392 | 25.56° C | 53% | 1016.1 hPa | 0 mm | - | 233 W/m² | - |
| 1787497091 | 26.67° C | 50% | 1016.2 hPa | 0 mm | - | 219 W/m² | - |
| 1787496786 | 26.67° C | 49% | 1016.2 hPa | 0 mm | - | 207 W/m² | - |
* Rain latest hour (hover to see other rain measurements)
** Current wind speed in m/s (hover to see current wind gust speed)